首页
METAR-TAF:

METAR-TAF

机场 :

Kinston Regional Jetport at Stallings Field

金斯顿, 北卡罗来纳州, 美国

纬度: 35-20N, 经度: 077-37W, 海拔: 29米

当前天气观测

该预报发布于55分钟前的18:56 UTC
风速13节,风向,有时为21节阵风
温度 11°C
湿度 76%
气压 1014 hPa
能見度: 16.1公里
阴天层高于1700英尺

METAR: KISO 171856Z 36013G21KT 10SM OVC017 11/07 A2993

时间: 14:51 (19:51 UTC)

预报

该预报发布于2小时和7分钟前的17:44 UTC
预报有效从17日的 18点(UTC)到 18日的 18点(UTC)
风速15节,风向,有时为23节阵风
能見度: 10公里
阴天层高于1700英尺
从 17日的 2200点(UTC)
风速12节,风向,有时为18节阵风
能見度: 10公里
阴天层高于1300英尺
从 18日的 0500点(UTC)
风速9节,风向北转西北
能見度: 10公里
多云层高于800英尺

TAF: KISO 171744Z 1718/1818 01015G23KT P6SM OVC017 FM172200 35012G18KT P6SM OVC013 FM180500 34009KT P6SM BKN008 AMD LTD TO CLD VIS AND WIND

超过4000个机场的气象观测和天气预报(METAR&TAF报告)。

可查询的气象台以黄色和红色小点在地图上表示。

将鼠标移到小点上方,可查看气象台名称。

然后点击查看天气观测和预报。

如需切换地图:点击带黑十字的绿色按钮放大地图;点击带横线的绿色按钮缩小地图;或者点击绿色箭头查看邻近地区的地图。


METAR-TAF: